createdAt,value
2022-12-16T00:01:27.766Z,-7.36
2022-12-16T00:03:56.580Z,-5.78
2022-12-16T00:06:25.709Z,-6.25
2022-12-16T00:08:52.982Z,-6.34
2022-12-16T00:11:27.441Z,-6.18
2022-12-16T00:13:54.998Z,-6.22
2022-12-16T00:16:21.999Z,-5.95
2022-12-16T00:18:48.913Z,-6.54
2022-12-16T00:21:18.631Z,-7.42
2022-12-16T00:23:45.526Z,-5.97
2022-12-16T00:26:12.644Z,-6.72
2022-12-16T00:28:40.600Z,-6.72
2022-12-16T00:31:07.732Z,-6.61
2022-12-16T00:33:34.895Z,-6.31
2022-12-16T00:36:01.982Z,-7.72
2022-12-16T00:38:28.667Z,-6.79
2022-12-16T00:40:55.499Z,-6.17
2022-12-16T00:43:22.611Z,-7.23
2022-12-16T00:45:49.636Z,-7.30
2022-12-16T00:48:18.811Z,-6.28
2022-12-16T00:50:55.267Z,-6.31
2022-12-16T00:53:23.684Z,-6.29
2022-12-16T00:55:50.500Z,-6.30
2022-12-16T00:58:17.330Z,-6.47
2022-12-16T01:00:44.064Z,-6.28
2022-12-16T01:03:13.252Z,-6.28
2022-12-16T01:05:42.232Z,-6.27
2022-12-16T01:08:08.997Z,-6.50
2022-12-16T01:10:35.715Z,-6.35
2022-12-16T01:13:02.278Z,-6.66
2022-12-16T01:15:28.824Z,-6.38
2022-12-16T01:17:55.519Z,-6.41
2022-12-16T01:20:22.069Z,-7.33
2022-12-16T01:22:48.818Z,-7.56
2022-12-16T01:25:15.541Z,-6.58
2022-12-16T01:27:42.198Z,-7.39
2022-12-16T01:30:09.709Z,-6.88
2022-12-16T01:32:37.051Z,-6.58
2022-12-16T01:35:10.686Z,-7.64
2022-12-16T01:37:45.231Z,-8.65
2022-12-16T01:40:20.090Z,-6.88
2022-12-16T01:42:47.156Z,-6.65
2022-12-16T01:45:30.776Z,-6.62
2022-12-16T01:48:01.465Z,-7.02
2022-12-16T01:50:29.184Z,-7.09
2022-12-16T01:53:00.021Z,-7.62
2022-12-16T01:55:41.779Z,-6.82
2022-12-16T01:58:20.256Z,-6.84
2022-12-16T02:00:46.974Z,-6.83
2022-12-16T02:03:13.939Z,-6.94
2022-12-16T02:05:42.740Z,-7.51
2022-12-16T02:08:09.341Z,-7.04
2022-12-16T02:10:42.205Z,-7.05
2022-12-16T02:13:34.126Z,-7.16
2022-12-16T02:16:17.443Z,-7.13
2022-12-16T02:18:59.409Z,-7.30
2022-12-16T02:21:47.265Z,-7.37
2022-12-16T02:24:52.997Z,-7.39
2022-12-16T02:27:27.633Z,-7.35
2022-12-16T02:30:32.092Z,-7.33
2022-12-16T02:33:18.625Z,-7.40
2022-12-16T02:35:55.581Z,-7.63
2022-12-16T02:38:32.467Z,-7.62
2022-12-16T02:41:09.645Z,-7.61
2022-12-16T02:43:51.727Z,-7.48
2022-12-16T02:46:23.876Z,-8.07
2022-12-16T02:48:50.498Z,-7.58
2022-12-16T02:51:18.041Z,-7.89
2022-12-16T02:53:46.787Z,-8.66
2022-12-16T02:56:36.554Z,-7.55
2022-12-16T02:59:37.113Z,-7.59
2022-12-16T03:02:16.157Z,-7.68
2022-12-16T03:04:49.791Z,-7.66
2022-12-16T03:07:21.587Z,-8.60
2022-12-16T03:09:50.187Z,-8.29
2022-12-16T03:12:20.000Z,-8.45
2022-12-16T03:14:50.320Z,-8.73
2022-12-16T03:17:18.733Z,-8.94
2022-12-16T03:19:53.340Z,-8.35
2022-12-16T03:22:28.263Z,-8.68
2022-12-16T03:24:55.841Z,-8.55
2022-12-16T03:27:46.848Z,-8.55
2022-12-16T03:30:19.163Z,-9.35
2022-12-16T03:32:58.170Z,-8.66
2022-12-16T03:35:37.291Z,-8.28
2022-12-16T03:38:07.883Z,-8.34
2022-12-16T03:40:35.443Z,-8.93
2022-12-16T03:43:03.440Z,-8.22
2022-12-16T03:45:38.623Z,-8.16
2022-12-16T03:48:08.589Z,-11.08
2022-12-16T03:50:36.147Z,-8.75
2022-12-16T03:53:05.894Z,-10.43
2022-12-16T03:55:33.049Z,-8.58
2022-12-16T03:57:59.727Z,-8.39
2022-12-16T04:00:27.032Z,-9.68
2022-12-16T04:02:53.928Z,-8.51
2022-12-16T04:05:20.952Z,-9.16
2022-12-16T04:07:47.587Z,-8.69
2022-12-16T04:10:14.175Z,-8.42
2022-12-16T04:12:59.545Z,-8.37
2022-12-16T04:15:44.783Z,-8.40
2022-12-16T04:18:37.319Z,-9.75
2022-12-16T04:21:23.283Z,-8.82
2022-12-16T04:24:13.802Z,-9.58
2022-12-16T04:26:58.928Z,-8.57
2022-12-16T04:29:25.552Z,-9.05
2022-12-16T04:31:53.190Z,-8.60
2022-12-16T04:34:29.250Z,-9.16
2022-12-16T04:37:19.742Z,-8.68
2022-12-16T04:40:05.638Z,-8.87
2022-12-16T04:42:51.354Z,-8.88
2022-12-16T04:45:37.050Z,-8.88
2022-12-16T04:48:23.108Z,-9.13
2022-12-16T04:51:08.347Z,-9.08
2022-12-16T04:53:54.078Z,-9.37
2022-12-16T04:56:41.791Z,-9.26
2022-12-16T04:59:27.083Z,-9.39
2022-12-16T05:02:12.302Z,-9.58
2022-12-16T05:05:02.129Z,-9.63
2022-12-16T05:07:47.406Z,-9.59
2022-12-16T05:10:32.766Z,-9.65
2022-12-16T05:13:17.828Z,-10.14
2022-12-16T05:16:03.243Z,-9.52
2022-12-16T05:18:48.507Z,-9.62
2022-12-16T05:21:33.954Z,-9.50
2022-12-16T05:24:19.107Z,-9.37
2022-12-16T05:27:04.504Z,-9.96
2022-12-16T05:29:50.047Z,-10.38
2022-12-16T05:32:35.368Z,-9.44
2022-12-16T05:35:20.766Z,-9.52
2022-12-16T05:38:06.092Z,-9.57
2022-12-16T05:40:51.381Z,-9.45
2022-12-16T05:43:36.948Z,-8.35
2022-12-16T05:46:39.253Z,-4.04
2022-12-16T05:49:32.374Z,-2.45
2022-12-16T05:52:18.022Z,-2.02
2022-12-16T05:55:03.414Z,-1.71
2022-12-16T05:57:48.925Z,-1.82
2022-12-16T06:00:34.495Z,-3.32
2022-12-16T06:03:21.252Z,-5.28
2022-12-16T06:06:06.846Z,-6.39
2022-12-16T06:08:52.164Z,-6.58
2022-12-16T06:11:37.267Z,-7.31
2022-12-16T06:14:22.796Z,-8.05
2022-12-16T06:17:10.826Z,-8.59
2022-12-16T06:19:56.408Z,-8.52
2022-12-16T06:22:42.003Z,-8.81
2022-12-16T06:25:27.196Z,-8.90
2022-12-16T06:28:12.681Z,-9.36
2022-12-16T06:30:58.156Z,-10.19
2022-12-16T06:33:43.431Z,-9.47
2022-12-16T06:36:35.784Z,-9.36
2022-12-16T06:39:21.435Z,-9.44
2022-12-16T06:42:07.005Z,-11.50
2022-12-16T06:44:52.436Z,-11.78
2022-12-16T06:47:37.605Z,-10.17
2022-12-16T06:50:30.546Z,-11.14
2022-12-16T06:53:15.853Z,-11.93
2022-12-16T06:56:01.367Z,-10.03
2022-12-16T06:58:46.857Z,-10.88
2022-12-16T07:01:32.574Z,-10.37
2022-12-16T07:04:18.007Z,-10.57
2022-12-16T07:07:03.404Z,-10.62
2022-12-16T07:09:48.893Z,-10.63
2022-12-16T07:12:34.402Z,-10.49
2022-12-16T07:15:19.764Z,-11.30
2022-12-16T07:18:07.276Z,-10.57
2022-12-16T07:20:52.482Z,-10.57
2022-12-16T07:23:40.497Z,-10.45
2022-12-16T07:26:25.861Z,-10.36
2022-12-16T07:29:11.351Z,-10.80
2022-12-16T07:31:56.903Z,-10.42
2022-12-16T07:34:47.129Z,-10.54
2022-12-16T07:37:35.121Z,-10.57
2022-12-16T07:40:20.436Z,-10.39
2022-12-16T07:43:06.198Z,-11.02
2022-12-16T07:45:51.761Z,-10.43
2022-12-16T07:48:38.118Z,-10.29
2022-12-16T07:51:23.429Z,-10.33
2022-12-16T07:54:08.887Z,-10.43
2022-12-16T07:56:54.476Z,-10.19
2022-12-16T07:59:39.893Z,-11.02
2022-12-16T08:02:28.532Z,-10.09
2022-12-16T08:05:13.832Z,-9.76
2022-12-16T08:08:00.286Z,-9.37
2022-12-16T08:10:46.075Z,-9.32
2022-12-16T08:13:31.465Z,-8.84
2022-12-16T08:16:17.052Z,-8.46
2022-12-16T08:19:07.558Z,-8.35
2022-12-16T08:21:56.360Z,-8.02
2022-12-16T08:24:41.770Z,-7.61
2022-12-16T08:27:27.275Z,-7.45
2022-12-16T08:30:26.428Z,-7.85
2022-12-16T08:33:18.832Z,-6.77
2022-12-16T08:36:05.629Z,-6.36
2022-12-16T08:38:51.601Z,-6.46
2022-12-16T08:41:37.675Z,-6.44
2022-12-16T08:44:23.704Z,-6.49
2022-12-16T08:47:09.041Z,-6.13
2022-12-16T08:49:57.702Z,-6.10
2022-12-16T08:52:47.869Z,-5.66
2022-12-16T08:55:33.212Z,-5.11
2022-12-16T08:58:18.711Z,-5.03
2022-12-16T09:01:07.553Z,-4.69
2022-12-16T09:03:54.745Z,-4.36
2022-12-16T09:06:41.216Z,-4.19
2022-12-16T09:09:28.151Z,-4.93
2022-12-16T09:12:13.535Z,-4.00
2022-12-16T09:14:58.945Z,-3.89
2022-12-16T09:17:44.324Z,-3.75
2022-12-16T09:20:30.442Z,-3.80
2022-12-16T09:23:20.104Z,-4.14
2022-12-16T09:26:10.062Z,-3.72
2022-12-16T09:28:55.631Z,-3.37
2022-12-16T09:31:41.334Z,-3.43
2022-12-16T09:34:26.744Z,-3.40
2022-12-16T09:37:14.809Z,-3.43
2022-12-16T09:40:00.164Z,-3.26
2022-12-16T09:42:58.827Z,-3.06
2022-12-16T09:46:11.693Z,-2.99
2022-12-16T09:49:20.520Z,-2.97
2022-12-16T09:52:06.783Z,-2.76
2022-12-16T09:54:55.894Z,-3.85
2022-12-16T09:57:43.330Z,-2.78
2022-12-16T10:00:58.900Z,-2.52
2022-12-16T10:03:55.007Z,-3.01
2022-12-16T10:06:51.474Z,-3.16
2022-12-16T10:09:48.594Z,-2.86
2022-12-16T10:12:51.377Z,-2.52
2022-12-16T10:15:50.339Z,-2.86
2022-12-16T10:18:47.557Z,-2.49
2022-12-16T10:21:40.029Z,-2.66
2022-12-16T10:24:50.611Z,-2.41
2022-12-16T10:27:45.766Z,-2.53
2022-12-16T10:30:33.269Z,-2.53
2022-12-16T10:33:18.850Z,-3.20
2022-12-16T10:36:12.551Z,-2.47
2022-12-16T10:39:00.804Z,-2.39
2022-12-16T10:41:51.354Z,-2.39
2022-12-16T10:44:53.948Z,-2.42
2022-12-16T10:47:41.175Z,-2.50
2022-12-16T10:50:32.101Z,-2.68
2022-12-16T10:53:24.051Z,-3.32
2022-12-16T10:56:37.156Z,-2.27
2022-12-16T10:59:25.386Z,-2.65
2022-12-16T11:02:20.075Z,-2.85
2022-12-16T11:05:06.808Z,-2.69
2022-12-16T11:08:09.498Z,-2.56
2022-12-16T11:11:00.715Z,-2.67
2022-12-16T11:13:54.819Z,-2.51
2022-12-16T11:16:45.474Z,-2.93
2022-12-16T11:19:43.980Z,-2.35
2022-12-16T11:22:32.336Z,-2.27
2022-12-16T11:25:40.905Z,-2.91
2022-12-16T11:28:32.013Z,-3.09
2022-12-16T11:31:22.135Z,-2.58
2022-12-16T11:34:08.996Z,-2.75
2022-12-16T11:36:57.678Z,-3.25
2022-12-16T11:39:45.996Z,-2.78
2022-12-16T11:42:39.158Z,-2.92
2022-12-16T11:45:33.076Z,-2.84
2022-12-16T11:48:35.862Z,-2.92
2022-12-16T11:51:30.740Z,-3.34
2022-12-16T11:54:33.934Z,-3.13
2022-12-16T11:57:23.559Z,-3.22
2022-12-16T12:00:19.064Z,-2.88
2022-12-16T12:03:17.725Z,-2.82
2022-12-16T12:06:17.396Z,-3.33
2022-12-16T12:09:18.247Z,-3.17
2022-12-16T12:12:09.195Z,-3.46
2022-12-16T12:15:09.607Z,-3.38
2022-12-16T12:18:21.502Z,-4.02
2022-12-16T12:21:50.297Z,-3.55
2022-12-16T12:24:42.303Z,-3.53
2022-12-16T12:27:52.836Z,-3.66
2022-12-16T12:30:39.804Z,-3.70
2022-12-16T12:33:52.251Z,-3.52
2022-12-16T12:37:00.679Z,-3.49
2022-12-16T12:39:59.261Z,-3.24
2022-12-16T12:43:04.070Z,-4.06
2022-12-16T12:46:10.815Z,-3.27
2022-12-16T12:49:07.045Z,-3.27
2022-12-16T12:55:52.051Z,-3.33
2022-12-16T12:58:39.019Z,-4.40
2022-12-16T13:01:27.070Z,-3.44
2022-12-16T13:04:23.580Z,-4.31
2022-12-16T13:07:13.758Z,-3.83
2022-12-16T13:09:59.377Z,-3.49
2022-12-16T13:12:52.443Z,-3.56
2022-12-16T13:15:37.732Z,-3.55
2022-12-16T13:18:23.203Z,-3.58
2022-12-16T13:21:14.600Z,-3.35
2022-12-16T13:24:04.140Z,-3.83
2022-12-16T13:26:53.218Z,-3.41
2022-12-16T13:29:50.112Z,-3.40
2022-12-16T13:32:44.751Z,-3.55
2022-12-16T13:35:35.772Z,-3.14
2022-12-16T13:38:39.360Z,-3.36
2022-12-16T13:41:46.013Z,-3.85
2022-12-16T13:44:53.643Z,-3.05
2022-12-16T13:47:53.431Z,-3.24
2022-12-16T13:51:25.526Z,-3.40
2022-12-16T13:54:26.365Z,-4.26
2022-12-16T13:57:12.008Z,-3.31
2022-12-16T14:00:00.737Z,-3.69
2022-12-16T14:02:52.287Z,-3.54
2022-12-16T14:05:49.020Z,-3.95
2022-12-16T14:08:36.836Z,-3.17
2022-12-16T14:11:36.036Z,-3.35
2022-12-16T14:14:37.941Z,-3.12
2022-12-16T14:17:34.057Z,-3.26
2022-12-16T14:20:39.011Z,-3.10
2022-12-16T14:24:06.752Z,-3.28
2022-12-16T14:27:05.165Z,-3.19
2022-12-16T14:37:20.796Z,-4.67
2022-12-16T14:40:15.281Z,-3.21
2022-12-16T14:43:01.925Z,-3.21
2022-12-16T14:45:53.753Z,-3.24
2022-12-16T14:48:55.508Z,-3.91
2022-12-16T14:51:49.518Z,-5.09
2022-12-16T14:54:58.251Z,-4.59
2022-12-16T14:57:54.718Z,-3.46
2022-12-16T15:00:43.663Z,-3.31
2022-12-16T15:03:35.839Z,-3.85
2022-12-16T15:06:27.928Z,-4.61
2022-12-16T15:09:19.025Z,-3.63
2022-12-16T15:12:06.613Z,-3.48
2022-12-16T15:14:55.158Z,-3.31
2022-12-16T15:18:12.995Z,-3.30
2022-12-16T15:21:12.968Z,-3.30
2022-12-16T15:24:01.686Z,-3.28
2022-12-16T15:26:50.495Z,-3.35
2022-12-16T15:29:51.144Z,-3.38
2022-12-16T15:32:46.062Z,-3.32
2022-12-16T15:35:55.071Z,-3.40
2022-12-16T15:38:48.464Z,-3.50
2022-12-16T15:41:48.929Z,-4.56
2022-12-16T15:44:36.408Z,-3.57
2022-12-16T15:47:53.090Z,-3.66
2022-12-16T15:50:42.493Z,-3.72
2022-12-16T15:53:56.631Z,-3.75
2022-12-16T15:56:45.138Z,-3.88
2022-12-16T15:59:49.068Z,-3.91
2022-12-16T16:02:41.597Z,-4.02
2022-12-16T16:05:37.828Z,-4.86
2022-12-16T16:08:23.696Z,-4.59
2022-12-16T16:11:09.021Z,-4.34
2022-12-16T16:14:14.964Z,-4.43
2022-12-16T16:17:01.957Z,-4.57
2022-12-16T16:19:47.930Z,-4.43
2022-12-16T16:22:35.717Z,-4.73
2022-12-16T16:25:21.690Z,-4.72
2022-12-16T16:28:07.392Z,-5.39
2022-12-16T16:30:52.603Z,-4.71
2022-12-16T16:33:39.908Z,-4.87
2022-12-16T16:36:34.029Z,-5.10
2022-12-16T16:39:27.567Z,-4.91
2022-12-16T16:42:13.846Z,-5.22
2022-12-16T16:44:59.091Z,-5.07
2022-12-16T16:47:47.956Z,-5.24
2022-12-16T16:50:33.788Z,-5.55
2022-12-16T16:53:19.443Z,-5.35
2022-12-16T16:56:06.405Z,-5.37
2022-12-16T16:58:53.299Z,-5.23
2022-12-16T17:01:38.752Z,-5.31
2022-12-16T17:04:24.682Z,-5.67
2022-12-16T17:07:10.375Z,-5.66
2022-12-16T17:09:56.284Z,-5.55
2022-12-16T17:12:44.578Z,-5.57
2022-12-16T17:15:58.112Z,-6.29
2022-12-16T17:18:48.987Z,-7.02
2022-12-16T17:21:37.466Z,-5.69
2022-12-16T17:24:23.198Z,-5.78
2022-12-16T17:27:08.515Z,-6.05
2022-12-16T17:29:53.935Z,-5.85
2022-12-16T17:32:39.262Z,-5.86
2022-12-16T17:35:24.757Z,-5.84
2022-12-16T17:38:10.372Z,-6.03
2022-12-16T17:40:57.265Z,-5.98
2022-12-16T17:43:42.763Z,-6.03
2022-12-16T17:46:30.371Z,-6.05
2022-12-16T17:49:18.306Z,-6.02
2022-12-16T17:52:03.746Z,-6.10
2022-12-16T17:55:00.230Z,-6.22
2022-12-16T17:57:45.592Z,-7.30
2022-12-16T18:00:31.927Z,-6.26
2022-12-16T18:03:17.572Z,-6.57
2022-12-16T18:06:04.172Z,-6.34
2022-12-16T18:08:51.074Z,-6.40
2022-12-16T18:11:38.857Z,-6.41
2022-12-16T18:14:28.040Z,-6.97
2022-12-16T18:17:16.329Z,-7.29
2022-12-16T18:20:01.671Z,-6.63
2022-12-16T18:22:46.924Z,-7.59
2022-12-16T18:25:32.025Z,-7.00
2022-12-16T18:28:17.573Z,-6.91
2022-12-16T18:31:41.101Z,-7.03
2022-12-16T18:34:27.173Z,-7.05
2022-12-16T18:37:12.518Z,-7.05
2022-12-16T18:39:57.902Z,-7.82
2022-12-16T18:42:43.375Z,-7.80
2022-12-16T18:45:28.801Z,-7.87
2022-12-16T18:48:14.225Z,-7.12
2022-12-16T18:50:59.588Z,-7.22
2022-12-16T18:53:45.097Z,-7.33
2022-12-16T18:56:30.447Z,-7.46
2022-12-16T18:59:17.525Z,-7.33
2022-12-16T19:02:03.560Z,-7.53
2022-12-16T19:04:49.906Z,-7.42
2022-12-16T19:07:35.116Z,-7.35
2022-12-16T19:10:20.983Z,-7.44
2022-12-16T19:13:06.266Z,-7.41
2022-12-16T19:15:52.025Z,-7.44
2022-12-16T19:18:37.715Z,-7.62
2022-12-16T19:21:23.211Z,-8.13
2022-12-16T19:24:09.368Z,-7.67
2022-12-16T19:30:00.223Z,-7.77
2022-12-16T19:32:45.963Z,-8.03
2022-12-16T19:35:31.341Z,-8.55
2022-12-16T19:38:17.068Z,-7.77
2022-12-16T19:41:12.751Z,-8.00
2022-12-16T19:44:05.448Z,-8.68
2022-12-16T19:46:59.685Z,-7.94
2022-12-16T19:49:45.096Z,-8.37
2022-12-16T19:52:30.946Z,-8.48
2022-12-16T19:58:21.570Z,-7.98
2022-12-16T20:01:07.467Z,-8.18
2022-12-16T20:03:55.150Z,-8.51
2022-12-16T20:06:42.209Z,-8.49
2022-12-16T20:09:27.844Z,-8.19
2022-12-16T20:12:13.097Z,-8.38
2022-12-16T20:14:59.507Z,-9.15
2022-12-16T20:17:44.696Z,-9.39
2022-12-16T20:20:31.473Z,-8.47
2022-12-16T20:23:16.752Z,-8.47
2022-12-16T20:26:02.272Z,-8.57
2022-12-16T20:28:47.478Z,-8.87
2022-12-16T20:31:32.971Z,-9.03
2022-12-16T20:34:18.464Z,-9.54
2022-12-16T20:37:05.388Z,-8.70
2022-12-16T20:39:56.725Z,-8.73
2022-12-16T20:42:45.975Z,-8.92
2022-12-16T20:45:31.258Z,-8.55
2022-12-16T20:48:17.258Z,-8.48
2022-12-16T20:51:02.789Z,-8.50
2022-12-16T20:53:47.952Z,-8.46
2022-12-16T20:56:33.271Z,-8.58
2022-12-16T20:59:19.978Z,-8.51
2022-12-16T21:02:25.051Z,-8.58
2022-12-16T21:05:12.582Z,-8.84
2022-12-16T21:07:57.746Z,-9.14
2022-12-16T21:10:43.529Z,-8.76
2022-12-16T21:13:32.969Z,-8.73
2022-12-16T21:16:20.765Z,-8.98
2022-12-16T21:19:06.134Z,-8.69
2022-12-16T21:21:51.555Z,-8.69
2022-12-16T21:24:37.113Z,-8.77
2022-12-16T21:27:22.851Z,-8.99
2022-12-16T21:30:07.968Z,-9.07
2022-12-16T21:32:53.481Z,-9.06
2022-12-16T21:35:39.103Z,-9.78
2022-12-16T21:38:32.262Z,-9.29
2022-12-16T21:41:17.381Z,-9.48
2022-12-16T21:44:02.677Z,-9.21
2022-12-16T21:46:47.830Z,-10.17
2022-12-16T21:49:33.233Z,-9.90
2022-12-16T21:52:18.918Z,-9.96
2022-12-16T21:55:04.260Z,-10.12
2022-12-16T21:57:49.605Z,-10.30
2022-12-16T22:00:35.377Z,-10.01
2022-12-16T22:03:21.083Z,-10.19
2022-12-16T22:06:06.415Z,-9.27
2022-12-16T22:08:51.884Z,-9.22
2022-12-16T22:11:37.290Z,-9.71
2022-12-16T22:14:22.683Z,-9.43
2022-12-16T22:17:08.064Z,-9.31
2022-12-16T22:19:53.428Z,-9.08
2022-12-16T22:22:41.460Z,-9.10
2022-12-16T22:25:26.952Z,-9.35
2022-12-16T22:28:12.193Z,-9.43
2022-12-16T22:31:05.105Z,-9.39
2022-12-16T22:33:50.835Z,-9.20
2022-12-16T22:36:20.446Z,-8.77
2022-12-16T22:36:37.390Z,-9.47
2022-12-16T22:39:22.844Z,-9.39
2022-12-16T22:42:08.186Z,-9.32
2022-12-16T22:44:53.515Z,-10.03
2022-12-16T22:47:41.993Z,-9.54
2022-12-16T22:50:27.441Z,-9.56
2022-12-16T22:53:12.932Z,-9.34
2022-12-16T22:56:01.918Z,-9.59
2022-12-16T22:58:47.677Z,-9.61
2022-12-16T23:01:33.129Z,-10.37
2022-12-16T23:04:18.621Z,-10.78
2022-12-16T23:07:04.110Z,-9.92
2022-12-16T23:09:49.575Z,-9.98
2022-12-16T23:12:34.869Z,-10.13
2022-12-16T23:15:20.128Z,-10.12
2022-12-16T23:18:05.523Z,-10.12
2022-12-16T23:20:50.777Z,-10.79
2022-12-16T23:23:37.792Z,-9.82
2022-12-16T23:26:23.292Z,-9.77
2022-12-16T23:29:12.759Z,-10.15
2022-12-16T23:31:57.842Z,-10.12
2022-12-16T23:34:46.088Z,-9.79
2022-12-16T23:37:33.333Z,-10.53
2022-12-16T23:40:18.512Z,-9.97
2022-12-16T23:43:05.997Z,-9.91
2022-12-16T23:45:51.979Z,-10.24
2022-12-16T23:48:37.227Z,-9.82
2022-12-16T23:51:22.523Z,-10.06
2022-12-16T23:54:24.717Z,-10.01
2022-12-16T23:57:10.364Z,-10.42
2022-12-16T23:59:56.561Z,-10.43
